Aviation Digital Data Service (ADDS)

Output produced by METARs form (1236 UTC 31 March 2015)
found at http://aviationweather.gov/adds/metars/
 
KBPT 311153Z 18004KT 6SM MIFG FEW018 17/17 A3007 RMK AO2 SLP182 T01720167 10189 20167 53004